KMCC/MCC METAR and TAF weather

Enter ICAO airport designator
Station Type Date Time Source
KMCC METAR 2022/08/13 11:35 UTC NOAA

KMCC 131135Z AUTO 15005KT 10SM CLR 17/12 A2995 RMK AO2


Station Type Date Time Source
KMCC Decoded METAR 2022/08/13 11:35 UTC NOAA

Sacramento, McClellan Airfield Airport, CA, United States (KMCC) 38-40N 121-24W
Aug 13, 2022 - 07:35 AM EDT / 2022.08.13 1135 UTC
Wind: from the SSE (150 degrees) at 6 MPH (5 KT):0
Visibility: 10 mile(s):0
Sky conditions: clear
Temperature: 62 F (17 C)
Dew Point: 53 F (12 C)
Relative Humidity: 72%
Pressure (altimeter): 29.95 in. Hg (1014 hPa)
ob: KMCC 131135Z AUTO 15005KT 10SM CLR 17/12 A2995 RMK AO2
cycle: 11

Station Type Date Time Source
KMCC TAF 2022/08/13 12:24 UTC NOAA

TAF KMCC 131120Z 1312/1412 17008KT P6SM SKC

Example: see airport list